sensor_id;sensor_type;location;lat;lon;timestamp;temperature;humidity
12426;DHT22;6277;49.824;9.562;2022-08-01T00:00:26;25.60;45.70
12426;DHT22;6277;49.824;9.562;2022-08-01T00:02:52;25.50;45.70
12426;DHT22;6277;49.824;9.562;2022-08-01T00:05:17;25.50;45.80
12426;DHT22;6277;49.824;9.562;2022-08-01T00:07:43;25.50;45.90
12426;DHT22;6277;49.824;9.562;2022-08-01T00:10:12;25.40;46.00
12426;DHT22;6277;49.824;9.562;2022-08-01T00:12:38;25.40;46.30
12426;DHT22;6277;49.824;9.562;2022-08-01T00:15:06;25.30;46.30
12426;DHT22;6277;49.824;9.562;2022-08-01T00:17:32;25.20;46.50
12426;DHT22;6277;49.824;9.562;2022-08-01T00:19:58;25.20;46.50
12426;DHT22;6277;49.824;9.562;2022-08-01T00:22:23;25.20;46.50
12426;DHT22;6277;49.824;9.562;2022-08-01T00:24:49;25.20;46.60
12426;DHT22;6277;49.824;9.562;2022-08-01T00:27:15;25.10;46.70
12426;DHT22;6277;49.824;9.562;2022-08-01T00:29:40;25.10;46.90
12426;DHT22;6277;49.824;9.562;2022-08-01T00:32:06;25.00;46.90
12426;DHT22;6277;49.824;9.562;2022-08-01T00:34:32;25.00;47.00
12426;DHT22;6277;49.824;9.562;2022-08-01T00:36:57;25.00;47.10
12426;DHT22;6277;49.824;9.562;2022-08-01T00:39:23;24.90;47.20
12426;DHT22;6277;49.824;9.562;2022-08-01T00:41:50;24.90;47.30
12426;DHT22;6277;49.824;9.562;2022-08-01T00:44:15;24.80;47.30
12426;DHT22;6277;49.824;9.562;2022-08-01T00:46:41;24.80;47.50
12426;DHT22;6277;49.824;9.562;2022-08-01T00:49:07;24.70;47.60
12426;DHT22;6277;49.824;9.562;2022-08-01T00:51:33;24.70;47.70
12426;DHT22;6277;49.824;9.562;2022-08-01T00:53:59;24.60;47.70
12426;DHT22;6277;49.824;9.562;2022-08-01T00:56:26;24.60;48.00
12426;DHT22;6277;49.824;9.562;2022-08-01T00:58:54;24.50;48.10
12426;DHT22;6277;49.824;9.562;2022-08-01T01:01:20;24.50;48.10
12426;DHT22;6277;49.824;9.562;2022-08-01T01:03:49;24.40;48.30
12426;DHT22;6277;49.824;9.562;2022-08-01T01:09:15;24.40;48.70
12426;DHT22;6277;49.824;9.562;2022-08-01T01:11:57;24.40;49.10
12426;DHT22;6277;49.824;9.562;2022-08-01T01:15:34;24.30;48.60
12426;DHT22;6277;49.824;9.562;2022-08-01T01:17:32;24.20;49.10
12426;DHT22;6277;49.824;9.562;2022-08-01T01:20:00;24.20;49.00
12426;DHT22;6277;49.824;9.562;2022-08-01T01:22:47;24.10;49.10
12426;DHT22;6277;49.824;9.562;2022-08-01T01:28:27;24.00;49.60
12426;DHT22;6277;49.824;9.562;2022-08-01T01:30:57;24.00;49.70
12426;DHT22;6277;49.824;9.562;2022-08-01T01:33:25;23.90;49.30
12426;DHT22;6277;49.824;9.562;2022-08-01T01:35:59;23.90;49.40
12426;DHT22;6277;49.824;9.562;2022-08-01T01:38:33;23.90;49.70
12426;DHT22;6277;49.824;9.562;2022-08-01T01:41:00;23.80;50.00
12426;DHT22;6277;49.824;9.562;2022-08-01T01:43:27;23.80;49.60
12426;DHT22;6277;49.824;9.562;2022-08-01T01:45:54;23.70;49.80
12426;DHT22;6277;49.824;9.562;2022-08-01T01:48:21;23.70;49.80
12426;DHT22;6277;49.824;9.562;2022-08-01T01:50:49;23.60;49.90
12426;DHT22;6277;49.824;9.562;2022-08-01T01:53:19;23.60;50.00
12426;DHT22;6277;49.824;9.562;2022-08-01T01:55:48;23.50;50.30
12426;DHT22;6277;49.824;9.562;2022-08-01T01:58:16;23.50;50.40
12426;DHT22;6277;49.824;9.562;2022-08-01T02:00:44;23.40;50.40
12426;DHT22;6277;49.824;9.562;2022-08-01T02:03:11;23.40;50.60
12426;DHT22;6277;49.824;9.562;2022-08-01T02:05:38;23.30;50.70
12426;DHT22;6277;49.824;9.562;2022-08-01T02:08:04;23.30;50.90
12426;DHT22;6277;49.824;9.562;2022-08-01T02:10:31;23.20;51.10
12426;DHT22;6277;49.824;9.562;2022-08-01T02:12:59;23.20;51.10
12426;DHT22;6277;49.824;9.562;2022-08-01T02:15:27;23.10;51.30
12426;DHT22;6277;49.824;9.562;2022-08-01T02:17:54;23.10;51.40
12426;DHT22;6277;49.824;9.562;2022-08-01T02:20:22;23.10;51.60
12426;DHT22;6277;49.824;9.562;2022-08-01T02:22:53;23.10;51.60
12426;DHT22;6277;49.824;9.562;2022-08-01T02:25:29;23.00;52.10
12426;DHT22;6277;49.824;9.562;2022-08-01T02:30:41;22.90;51.80
12426;DHT22;6277;49.824;9.562;2022-08-01T02:33:18;23.00;51.50
12426;DHT22;6277;49.824;9.562;2022-08-01T02:35:47;22.90;52.00
12426;DHT22;6277;49.824;9.562;2022-08-01T02:38:14;22.90;52.00
12426;DHT22;6277;49.824;9.562;2022-08-01T02:40:43;22.80;51.80
12426;DHT22;6277;49.824;9.562;2022-08-01T02:43:12;22.80;52.10
12426;DHT22;6277;49.824;9.562;2022-08-01T02:45:43;22.70;52.10
12426;DHT22;6277;49.824;9.562;2022-08-01T02:48:12;22.70;52.30
12426;DHT22;6277;49.824;9.562;2022-08-01T02:50:40;22.60;52.20
12426;DHT22;6277;49.824;9.562;2022-08-01T02:53:08;22.50;52.20
12426;DHT22;6277;49.824;9.562;2022-08-01T02:55:36;22.50;52.40
12426;DHT22;6277;49.824;9.562;2022-08-01T02:58:04;22.40;52.40
12426;DHT22;6277;49.824;9.562;2022-08-01T03:00:32;22.40;52.60
12426;DHT22;6277;49.824;9.562;2022-08-01T03:02:59;22.30;52.70
12426;DHT22;6277;49.824;9.562;2022-08-01T03:05:27;22.30;52.90
12426;DHT22;6277;49.824;9.562;2022-08-01T03:07:55;22.20;53.50
12426;DHT22;6277;49.824;9.562;2022-08-01T03:10:21;22.20;53.10
12426;DHT22;6277;49.824;9.562;2022-08-01T03:12:49;22.10;53.10
12426;DHT22;6277;49.824;9.562;2022-08-01T03:15:16;22.00;53.20
12426;DHT22;6277;49.824;9.562;2022-08-01T03:17:44;22.00;53.30
12426;DHT22;6277;49.824;9.562;2022-08-01T03:20:13;22.00;53.40
12426;DHT22;6277;49.824;9.562;2022-08-01T03:22:40;21.90;53.50
12426;DHT22;6277;49.824;9.562;2022-08-01T03:25:08;21.90;53.70
12426;DHT22;6277;49.824;9.562;2022-08-01T03:27:35;21.80;53.70
12426;DHT22;6277;49.824;9.562;2022-08-01T03:30:03;21.80;53.80
12426;DHT22;6277;49.824;9.562;2022-08-01T03:32:30;21.70;53.90
12426;DHT22;6277;49.824;9.562;2022-08-01T03:34:56;21.70;53.80
12426;DHT22;6277;49.824;9.562;2022-08-01T03:37:33;21.70;54.10
12426;DHT22;6277;49.824;9.562;2022-08-01T03:40:13;21.60;54.30
12426;DHT22;6277;49.824;9.562;2022-08-01T03:42:48;21.60;54.70
12426;DHT22;6277;49.824;9.562;2022-08-01T03:45:25;21.50;54.70
12426;DHT22;6277;49.824;9.562;2022-08-01T03:48:02;21.50;54.90
12426;DHT22;6277;49.824;9.562;2022-08-01T03:50:29;21.50;54.80
12426;DHT22;6277;49.824;9.562;2022-08-01T03:53:00;21.40;54.50
12426;DHT22;6277;49.824;9.562;2022-08-01T03:55:26;21.30;54.50
12426;DHT22;6277;49.824;9.562;2022-08-01T03:57:52;21.30;54.70
12426;DHT22;6277;49.824;9.562;2022-08-01T04:00:19;21.30;54.80
12426;DHT22;6277;49.824;9.562;2022-08-01T04:02:48;21.30;54.90
12426;DHT22;6277;49.824;9.562;2022-08-01T04:05:15;21.20;55.30
12426;DHT22;6277;49.824;9.562;2022-08-01T04:07:45;21.20;55.20
12426;DHT22;6277;49.824;9.562;2022-08-01T04:10:12;21.10;55.50
12426;DHT22;6277;49.824;9.562;2022-08-01T04:12:37;21.10;55.30
12426;DHT22;6277;49.824;9.562;2022-08-01T04:15:04;21.10;55.50
12426;DHT22;6277;49.824;9.562;2022-08-01T04:17:30;21.00;55.50
12426;DHT22;6277;49.824;9.562;2022-08-01T04:19:55;21.00;55.70
12426;DHT22;6277;49.824;9.562;2022-08-01T04:22:21;21.00;55.70
12426;DHT22;6277;49.824;9.562;2022-08-01T04:24:48;21.00;55.90
12426;DHT22;6277;49.824;9.562;2022-08-01T04:27:17;21.00;56.10
12426;DHT22;6277;49.824;9.562;2022-08-01T04:29:45;21.10;56.50
12426;DHT22;6277;49.824;9.562;2022-08-01T04:32:13;21.10;56.40
12426;DHT22;6277;49.824;9.562;2022-08-01T04:34:41;21.20;56.60
12426;DHT22;6277;49.824;9.562;2022-08-01T04:37:11;21.20;56.70
12426;DHT22;6277;49.824;9.562;2022-08-01T04:39:39;21.30;56.80
12426;DHT22;6277;49.824;9.562;2022-08-01T04:42:07;21.40;57.00
12426;DHT22;6277;49.824;9.562;2022-08-01T04:44:33;21.50;56.90
12426;DHT22;6277;49.824;9.562;2022-08-01T04:47:00;21.60;57.00
12426;DHT22;6277;49.824;9.562;2022-08-01T04:49:31;21.60;57.20
12426;DHT22;6277;49.824;9.562;2022-08-01T04:51:57;21.80;57.20
12426;DHT22;6277;49.824;9.562;2022-08-01T04:54:29;21.90;57.10
12426;DHT22;6277;49.824;9.562;2022-08-01T04:56:55;22.00;57.10
12426;DHT22;6277;49.824;9.562;2022-08-01T04:59:28;22.10;57.20
12426;DHT22;6277;49.824;9.562;2022-08-01T05:04:36;22.30;57.20
12426;DHT22;6277;49.824;9.562;2022-08-01T05:07:02;22.40;57.10
12426;DHT22;6277;49.824;9.562;2022-08-01T05:09:28;22.50;57.20
12426;DHT22;6277;49.824;9.562;2022-08-01T05:11:54;22.60;57.10
12426;DHT22;6277;49.824;9.562;2022-08-01T05:14:19;22.70;57.10
12426;DHT22;6277;49.824;9.562;2022-08-01T05:16:46;22.80;56.90
12426;DHT22;6277;49.824;9.562;2022-08-01T05:19:12;22.90;56.90
12426;DHT22;6277;49.824;9.562;2022-08-01T05:21:37;22.90;56.80
12426;DHT22;6277;49.824;9.562;2022-08-01T05:24:04;23.00;56.80
12426;DHT22;6277;49.824;9.562;2022-08-01T05:26:30;23.00;56.70
12426;DHT22;6277;49.824;9.562;2022-08-01T05:28:56;23.00;57.20
12426;DHT22;6277;49.824;9.562;2022-08-01T05:31:21;23.10;56.60
12426;DHT22;6277;49.824;9.562;2022-08-01T05:33:47;23.10;56.60
12426;DHT22;6277;49.824;9.562;2022-08-01T05:36:13;23.10;56.60
12426;DHT22;6277;49.824;9.562;2022-08-01T05:38:38;23.10;56.50
12426;DHT22;6277;49.824;9.562;2022-08-01T05:41:04;23.10;56.70
12426;DHT22;6277;49.824;9.562;2022-08-01T05:43:30;23.10;56.70
12426;DHT22;6277;49.824;9.562;2022-08-01T05:45:55;23.10;56.70
12426;DHT22;6277;49.824;9.562;2022-08-01T05:48:21;23.10;56.70
12426;DHT22;6277;49.824;9.562;2022-08-01T05:50:46;23.10;56.80
12426;DHT22;6277;49.824;9.562;2022-08-01T05:53:13;23.20;56.80
12426;DHT22;6277;49.824;9.562;2022-08-01T05:55:38;23.20;56.80
12426;DHT22;6277;49.824;9.562;2022-08-01T05:58:04;23.20;56.80
12426;DHT22;6277;49.824;9.562;2022-08-01T06:00:29;23.30;57.50
12426;DHT22;6277;49.824;9.562;2022-08-01T06:02:55;23.30;56.90
12426;DHT22;6277;49.824;9.562;2022-08-01T06:05:20;23.30;56.80
12426;DHT22;6277;49.824;9.562;2022-08-01T06:07:46;23.40;56.80
12426;DHT22;6277;49.824;9.562;2022-08-01T06:10:11;23.40;56.80
12426;DHT22;6277;49.824;9.562;2022-08-01T06:12:37;23.50;56.90
12426;DHT22;6277;49.824;9.562;2022-08-01T06:15:04;23.50;56.90
12426;DHT22;6277;49.824;9.562;2022-08-01T06:17:30;23.50;56.90
12426;DHT22;6277;49.824;9.562;2022-08-01T06:19:55;23.60;56.90
12426;DHT22;6277;49.824;9.562;2022-08-01T06:22:21;23.60;56.90
12426;DHT22;6277;49.824;9.562;2022-08-01T06:24:47;23.70;56.90
12426;DHT22;6277;49.824;9.562;2022-08-01T06:27:12;23.70;56.80
12426;DHT22;6277;49.824;9.562;2022-08-01T06:29:38;23.80;56.80
12426;DHT22;6277;49.824;9.562;2022-08-01T06:32:03;23.80;56.70
12426;DHT22;6277;49.824;9.562;2022-08-01T06:34:29;23.90;56.80
12426;DHT22;6277;49.824;9.562;2022-08-01T06:36:55;23.90;56.60
12426;DHT22;6277;49.824;9.562;2022-08-01T06:39:20;24.00;56.60
12426;DHT22;6277;49.824;9.562;2022-08-01T06:41:46;24.10;56.70
12426;DHT22;6277;49.824;9.562;2022-08-01T06:44:12;24.10;56.60
12426;DHT22;6277;49.824;9.562;2022-08-01T06:46:38;24.20;56.50
12426;DHT22;6277;49.824;9.562;2022-08-01T06:49:03;24.20;56.40
12426;DHT22;6277;49.824;9.562;2022-08-01T06:51:29;24.30;56.40
12426;DHT22;6277;49.824;9.562;2022-08-01T06:53:55;24.30;56.30
12426;DHT22;6277;49.824;9.562;2022-08-01T06:56:20;24.40;56.30
12426;DHT22;6277;49.824;9.562;2022-08-01T06:58:46;24.50;56.20
12426;DHT22;6277;49.824;9.562;2022-08-01T07:01:12;24.50;56.10
12426;DHT22;6277;49.824;9.562;2022-08-01T07:03:38;24.60;56.10
12426;DHT22;6277;49.824;9.562;2022-08-01T07:06:03;24.60;56.10
12426;DHT22;6277;49.824;9.562;2022-08-01T07:08:29;24.70;56.00
12426;DHT22;6277;49.824;9.562;2022-08-01T07:10:55;24.80;56.10
12426;DHT22;6277;49.824;9.562;2022-08-01T07:13:27;24.90;56.30
12426;DHT22;6277;49.824;9.562;2022-08-01T07:15:55;25.00;56.00
12426;DHT22;6277;49.824;9.562;2022-08-01T07:18:21;25.20;55.80
12426;DHT22;6277;49.824;9.562;2022-08-01T07:20:46;25.30;55.60
12426;DHT22;6277;49.824;9.562;2022-08-01T07:23:12;25.40;55.60
12426;DHT22;6277;49.824;9.562;2022-08-01T07:25:38;25.50;55.60
12426;DHT22;6277;49.824;9.562;2022-08-01T07:28:04;25.60;55.40
12426;DHT22;6277;49.824;9.562;2022-08-01T07:30:30;25.70;55.20
12426;DHT22;6277;49.824;9.562;2022-08-01T07:32:56;25.80;55.20
12426;DHT22;6277;49.824;9.562;2022-08-01T07:35:21;25.80;55.00
12426;DHT22;6277;49.824;9.562;2022-08-01T07:37:47;26.00;54.90
12426;DHT22;6277;49.824;9.562;2022-08-01T07:40:13;26.00;54.60
12426;DHT22;6277;49.824;9.562;2022-08-01T07:42:39;26.10;54.60
12426;DHT22;6277;49.824;9.562;2022-08-01T07:45:09;26.10;54.60
12426;DHT22;6277;49.824;9.562;2022-08-01T07:47:34;26.20;54.40
12426;DHT22;6277;49.824;9.562;2022-08-01T07:50:01;26.30;54.30
12426;DHT22;6277;49.824;9.562;2022-08-01T07:52:27;26.30;54.10
12426;DHT22;6277;49.824;9.562;2022-08-01T07:54:52;26.30;54.00
12426;DHT22;6277;49.824;9.562;2022-08-01T07:57:18;26.40;54.10
12426;DHT22;6277;49.824;9.562;2022-08-01T07:59:44;26.40;53.70
12426;DHT22;6277;49.824;9.562;2022-08-01T08:02:09;26.40;53.50
12426;DHT22;6277;49.824;9.562;2022-08-01T08:04:35;26.40;53.50
12426;DHT22;6277;49.824;9.562;2022-08-01T08:07:03;26.40;53.40
12426;DHT22;6277;49.824;9.562;2022-08-01T08:09:28;26.50;53.70
12426;DHT22;6277;49.824;9.562;2022-08-01T08:11:54;26.50;53.50
12426;DHT22;6277;49.824;9.562;2022-08-01T08:14:19;26.60;53.10
12426;DHT22;6277;49.824;9.562;2022-08-01T08:16:48;26.60;53.00
12426;DHT22;6277;49.824;9.562;2022-08-01T08:19:13;26.60;52.90
12426;DHT22;6277;49.824;9.562;2022-08-01T08:21:39;26.60;52.90
12426;DHT22;6277;49.824;9.562;2022-08-01T08:24:06;26.60;53.00
12426;DHT22;6277;49.824;9.562;2022-08-01T08:26:54;26.60;53.00
12426;DHT22;6277;49.824;9.562;2022-08-01T08:29:21;26.60;53.00
12426;DHT22;6277;49.824;9.562;2022-08-01T08:31:47;26.60;52.90
12426;DHT22;6277;49.824;9.562;2022-08-01T08:34:13;26.60;52.70
12426;DHT22;6277;49.824;9.562;2022-08-01T08:36:38;26.60;52.80
12426;DHT22;6277;49.824;9.562;2022-08-01T08:39:05;26.60;52.80
12426;DHT22;6277;49.824;9.562;2022-08-01T08:41:32;26.60;52.70
12426;DHT22;6277;49.824;9.562;2022-08-01T08:43:58;26.70;52.80
12426;DHT22;6277;49.824;9.562;2022-08-01T08:46:26;26.70;52.90
12426;DHT22;6277;49.824;9.562;2022-08-01T08:48:53;26.80;52.90
12426;DHT22;6277;49.824;9.562;2022-08-01T08:51:19;26.90;53.00
12426;DHT22;6277;49.824;9.562;2022-08-01T08:53:46;27.00;52.80
12426;DHT22;6277;49.824;9.562;2022-08-01T08:56:13;27.00;52.50
12426;DHT22;6277;49.824;9.562;2022-08-01T08:58:46;27.10;52.50
12426;DHT22;6277;49.824;9.562;2022-08-01T09:01:12;27.20;52.30
12426;DHT22;6277;49.824;9.562;2022-08-01T09:03:38;27.20;52.20
12426;DHT22;6277;49.824;9.562;2022-08-01T09:06:04;27.20;52.00
12426;DHT22;6277;49.824;9.562;2022-08-01T09:08:30;27.20;51.90
12426;DHT22;6277;49.824;9.562;2022-08-01T09:10:56;27.20;52.00
12426;DHT22;6277;49.824;9.562;2022-08-01T09:13:21;27.30;52.20
12426;DHT22;6277;49.824;9.562;2022-08-01T09:15:52;27.40;52.20
12426;DHT22;6277;49.824;9.562;2022-08-01T09:18:44;27.60;51.90
12426;DHT22;6277;49.824;9.562;2022-08-01T09:21:19;27.70;51.60
12426;DHT22;6277;49.824;9.562;2022-08-01T09:23:51;27.80;51.60
12426;DHT22;6277;49.824;9.562;2022-08-01T09:26:34;28.00;51.60
12426;DHT22;6277;49.824;9.562;2022-08-01T09:29:04;28.10;51.20
12426;DHT22;6277;49.824;9.562;2022-08-01T09:31:40;28.20;50.90
12426;DHT22;6277;49.824;9.562;2022-08-01T09:34:06;28.30;50.50
12426;DHT22;6277;49.824;9.562;2022-08-01T09:36:56;28.30;50.60
12426;DHT22;6277;49.824;9.562;2022-08-01T09:39:30;28.30;50.20
12426;DHT22;6277;49.824;9.562;2022-08-01T09:41:58;28.40;50.10
12426;DHT22;6277;49.824;9.562;2022-08-01T09:44:44;28.40;50.20
12426;DHT22;6277;49.824;9.562;2022-08-01T09:47:11;28.40;50.00
12426;DHT22;6277;49.824;9.562;2022-08-01T09:49:39;28.40;49.80
12426;DHT22;6277;49.824;9.562;2022-08-01T09:52:13;28.40;49.50
12426;DHT22;6277;49.824;9.562;2022-08-01T09:54:40;28.30;48.40
12426;DHT22;6277;49.824;9.562;2022-08-01T09:57:17;28.20;48.90
12426;DHT22;6277;49.824;9.562;2022-08-01T09:59:46;28.20;49.00
12426;DHT22;6277;49.824;9.562;2022-08-01T10:02:14;28.20;49.40
12426;DHT22;6277;49.824;9.562;2022-08-01T10:04:51;28.20;49.60
12426;DHT22;6277;49.824;9.562;2022-08-01T10:07:17;28.30;49.50
12426;DHT22;6277;49.824;9.562;2022-08-01T10:09:44;28.40;49.80
12426;DHT22;6277;49.824;9.562;2022-08-01T10:12:12;28.50;49.70
12426;DHT22;6277;49.824;9.562;2022-08-01T10:14:38;28.60;49.30
12426;DHT22;6277;49.824;9.562;2022-08-01T10:17:07;28.70;49.00
12426;DHT22;6277;49.824;9.562;2022-08-01T10:19:35;28.80;48.80
12426;DHT22;6277;49.824;9.562;2022-08-01T10:22:05;28.90;48.80
12426;DHT22;6277;49.824;9.562;2022-08-01T10:24:36;28.90;48.60
12426;DHT22;6277;49.824;9.562;2022-08-01T10:27:03;29.00;48.30
12426;DHT22;6277;49.824;9.562;2022-08-01T10:29:43;29.00;48.20
12426;DHT22;6277;49.824;9.562;2022-08-01T10:32:11;29.00;48.00
12426;DHT22;6277;49.824;9.562;2022-08-01T10:34:37;29.00;48.10
12426;DHT22;6277;49.824;9.562;2022-08-01T10:37:04;29.00;47.80
12426;DHT22;6277;49.824;9.562;2022-08-01T10:39:31;29.00;47.90
12426;DHT22;6277;49.824;9.562;2022-08-01T10:41:58;29.00;48.00
12426;DHT22;6277;49.824;9.562;2022-08-01T10:44:25;29.00;47.70
12426;DHT22;6277;49.824;9.562;2022-08-01T10:46:56;29.10;47.80
12426;DHT22;6277;49.824;9.562;2022-08-01T10:49:25;29.10;47.20
12426;DHT22;6277;49.824;9.562;2022-08-01T10:51:51;29.10;47.00
12426;DHT22;6277;49.824;9.562;2022-08-01T10:54:17;29.10;47.00
12426;DHT22;6277;49.824;9.562;2022-08-01T10:56:49;29.10;47.10
12426;DHT22;6277;49.824;9.562;2022-08-01T10:59:27;29.10;47.00
12426;DHT22;6277;49.824;9.562;2022-08-01T11:02:04;29.10;46.80
12426;DHT22;6277;49.824;9.562;2022-08-01T11:07:07;29.10;46.60
12426;DHT22;6277;49.824;9.562;2022-08-01T11:09:44;29.20;46.80
12426;DHT22;6277;49.824;9.562;2022-08-01T11:12:15;29.30;46.80
12426;DHT22;6277;49.824;9.562;2022-08-01T11:22:31;29.50;46.10
12426;DHT22;6277;49.824;9.562;2022-08-01T11:24:57;29.50;46.20
12426;DHT22;6277;49.824;9.562;2022-08-01T11:32:50;29.40;45.80
12426;DHT22;6277;49.824;9.562;2022-08-01T11:35:16;29.40;45.20
12426;DHT22;6277;49.824;9.562;2022-08-01T11:37:42;29.40;45.70
12426;DHT22;6277;49.824;9.562;2022-08-01T11:42:41;29.40;45.50
12426;DHT22;6277;49.824;9.562;2022-08-01T11:45:07;29.40;45.70
12426;DHT22;6277;49.824;9.562;2022-08-01T11:50:29;29.40;45.60
12426;DHT22;6277;49.824;9.562;2022-08-01T11:53:03;29.50;45.50
12426;DHT22;6277;49.824;9.562;2022-08-01T11:55:30;29.60;45.20
12426;DHT22;6277;49.824;9.562;2022-08-01T11:58:06;29.70;45.10
12426;DHT22;6277;49.824;9.562;2022-08-01T12:00:32;29.80;44.50
12426;DHT22;6277;49.824;9.562;2022-08-01T12:03:02;29.80;44.60
12426;DHT22;6277;49.824;9.562;2022-08-01T12:05:29;29.90;44.60
12426;DHT22;6277;49.824;9.562;2022-08-01T12:07:56;30.00;44.80
12426;DHT22;6277;49.824;9.562;2022-08-01T12:10:24;30.00;44.70
12426;DHT22;6277;49.824;9.562;2022-08-01T12:12:52;30.10;44.70
12426;DHT22;6277;49.824;9.562;2022-08-01T12:15:19;30.30;44.60
12426;DHT22;6277;49.824;9.562;2022-08-01T12:17:47;30.40;44.50
12426;DHT22;6277;49.824;9.562;2022-08-01T12:20:15;30.50;44.10
12426;DHT22;6277;49.824;9.562;2022-08-01T12:22:41;30.70;44.10
12426;DHT22;6277;49.824;9.562;2022-08-01T12:25:11;30.80;44.10
12426;DHT22;6277;49.824;9.562;2022-08-01T12:27:38;31.00;44.10
12426;DHT22;6277;49.824;9.562;2022-08-01T12:30:07;31.10;43.80
12426;DHT22;6277;49.824;9.562;2022-08-01T12:32:34;31.30;43.30
12426;DHT22;6277;49.824;9.562;2022-08-01T12:37:58;31.50;42.50
12426;DHT22;6277;49.824;9.562;2022-08-01T12:40:35;31.50;42.40
12426;DHT22;6277;49.824;9.562;2022-08-01T12:43:03;31.50;42.50
12426;DHT22;6277;49.824;9.562;2022-08-01T12:45:33;31.40;42.40
12426;DHT22;6277;49.824;9.562;2022-08-01T12:48:00;31.40;42.30
12426;DHT22;6277;49.824;9.562;2022-08-01T12:50:28;31.30;42.30
12426;DHT22;6277;49.824;9.562;2022-08-01T12:52:54;31.20;42.10
12426;DHT22;6277;49.824;9.562;2022-08-01T12:55:22;31.10;42.10
12426;DHT22;6277;49.824;9.562;2022-08-01T12:58:11;31.00;42.10
12426;DHT22;6277;49.824;9.562;2022-08-01T13:00:37;30.80;42.20
12426;DHT22;6277;49.824;9.562;2022-08-01T13:03:07;30.80;42.50
12426;DHT22;6277;49.824;9.562;2022-08-01T13:05:46;30.80;42.40
12426;DHT22;6277;49.824;9.562;2022-08-01T13:08:18;30.80;42.00
12426;DHT22;6277;49.824;9.562;2022-08-01T13:10:44;30.90;42.00
12426;DHT22;6277;49.824;9.562;2022-08-01T13:13:11;30.80;41.70
12426;DHT22;6277;49.824;9.562;2022-08-01T13:15:38;30.80;41.60
12426;DHT22;6277;49.824;9.562;2022-08-01T13:18:25;30.70;41.60
12426;DHT22;6277;49.824;9.562;2022-08-01T13:23:36;30.70;41.80
12426;DHT22;6277;49.824;9.562;2022-08-01T13:26:02;30.80;42.10
12426;DHT22;6277;49.824;9.562;2022-08-01T13:28:28;31.00;42.20
12426;DHT22;6277;49.824;9.562;2022-08-01T13:31:03;31.10;42.40
12426;DHT22;6277;49.824;9.562;2022-08-01T13:33:44;31.30;41.60
12426;DHT22;6277;49.824;9.562;2022-08-01T13:36:10;31.50;41.30
12426;DHT22;6277;49.824;9.562;2022-08-01T13:38:37;31.60;41.50
12426;DHT22;6277;49.824;9.562;2022-08-01T13:41:21;31.80;41.30
12426;DHT22;6277;49.824;9.562;2022-08-01T13:43:47;31.90;41.20
12426;DHT22;6277;49.824;9.562;2022-08-01T13:46:12;32.00;40.90
12426;DHT22;6277;49.824;9.562;2022-08-01T13:48:38;32.10;40.80
12426;DHT22;6277;49.824;9.562;2022-08-01T13:51:03;32.10;40.70
12426;DHT22;6277;49.824;9.562;2022-08-01T13:53:29;32.20;40.50
12426;DHT22;6277;49.824;9.562;2022-08-01T13:55:55;32.30;40.50
12426;DHT22;6277;49.824;9.562;2022-08-01T13:58:21;32.40;40.40
12426;DHT22;6277;49.824;9.562;2022-08-01T14:00:46;32.50;40.20
12426;DHT22;6277;49.824;9.562;2022-08-01T14:03:12;32.60;40.10
12426;DHT22;6277;49.824;9.562;2022-08-01T14:05:38;32.60;39.90
12426;DHT22;6277;49.824;9.562;2022-08-01T14:08:05;32.70;39.80
12426;DHT22;6277;49.824;9.562;2022-08-01T14:10:31;32.80;39.80
12426;DHT22;6277;49.824;9.562;2022-08-01T14:12:56;32.90;39.60
12426;DHT22;6277;49.824;9.562;2022-08-01T14:15:23;33.00;39.50
12426;DHT22;6277;49.824;9.562;2022-08-01T14:17:49;33.10;39.10
12426;DHT22;6277;49.824;9.562;2022-08-01T14:20:14;33.20;38.70
12426;DHT22;6277;49.824;9.562;2022-08-01T14:22:40;33.20;38.50
12426;DHT22;6277;49.824;9.562;2022-08-01T14:25:06;33.30;38.20
12426;DHT22;6277;49.824;9.562;2022-08-01T14:27:33;33.20;37.90
12426;DHT22;6277;49.824;9.562;2022-08-01T14:30:02;33.20;38.00
12426;DHT22;6277;49.824;9.562;2022-08-01T14:32:28;33.10;37.90
12426;DHT22;6277;49.824;9.562;2022-08-01T14:34:54;33.10;37.90
12426;DHT22;6277;49.824;9.562;2022-08-01T14:37:20;33.10;37.90
12426;DHT22;6277;49.824;9.562;2022-08-01T14:39:45;33.30;37.90
12426;DHT22;6277;49.824;9.562;2022-08-01T14:42:11;33.40;37.60
12426;DHT22;6277;49.824;9.562;2022-08-01T14:44:37;33.50;37.50
12426;DHT22;6277;49.824;9.562;2022-08-01T14:47:02;33.60;37.40
12426;DHT22;6277;49.824;9.562;2022-08-01T14:49:28;33.80;37.30
12426;DHT22;6277;49.824;9.562;2022-08-01T14:51:53;34.00;37.20
12426;DHT22;6277;49.824;9.562;2022-08-01T14:54:19;34.10;36.70
12426;DHT22;6277;49.824;9.562;2022-08-01T14:56:45;34.20;36.40
12426;DHT22;6277;49.824;9.562;2022-08-01T14:59:10;34.20;36.30
12426;DHT22;6277;49.824;9.562;2022-08-01T15:01:36;34.20;36.10
12426;DHT22;6277;49.824;9.562;2022-08-01T15:04:01;34.30;35.90
12426;DHT22;6277;49.824;9.562;2022-08-01T15:06:27;34.40;35.80
12426;DHT22;6277;49.824;9.562;2022-08-01T15:08:53;34.30;36.10
12426;DHT22;6277;49.824;9.562;2022-08-01T15:11:18;34.40;35.50
12426;DHT22;6277;49.824;9.562;2022-08-01T15:13:44;34.30;35.50
12426;DHT22;6277;49.824;9.562;2022-08-01T15:16:10;34.20;35.50
12426;DHT22;6277;49.824;9.562;2022-08-01T15:18:35;34.20;35.40
12426;DHT22;6277;49.824;9.562;2022-08-01T15:21:01;34.10;35.30
12426;DHT22;6277;49.824;9.562;2022-08-01T15:23:26;34.10;35.50
12426;DHT22;6277;49.824;9.562;2022-08-01T15:25:52;33.90;35.30
12426;DHT22;6277;49.824;9.562;2022-08-01T15:28:18;33.90;35.40
12426;DHT22;6277;49.824;9.562;2022-08-01T15:30:44;33.80;35.60
12426;DHT22;6277;49.824;9.562;2022-08-01T15:33:10;33.90;35.60
12426;DHT22;6277;49.824;9.562;2022-08-01T15:35:35;34.00;35.70
12426;DHT22;6277;49.824;9.562;2022-08-01T15:38:01;34.20;35.80
12426;DHT22;6277;49.824;9.562;2022-08-01T15:40:27;34.50;36.00
12426;DHT22;6277;49.824;9.562;2022-08-01T15:42:53;34.80;35.90
12426;DHT22;6277;49.824;9.562;2022-08-01T15:45:19;35.10;35.50
12426;DHT22;6277;49.824;9.562;2022-08-01T15:47:46;35.30;34.90
12426;DHT22;6277;49.824;9.562;2022-08-01T15:50:11;35.30;34.60
12426;DHT22;6277;49.824;9.562;2022-08-01T15:52:37;35.30;34.10
12426;DHT22;6277;49.824;9.562;2022-08-01T15:55:03;35.20;33.80
12426;DHT22;6277;49.824;9.562;2022-08-01T15:57:29;35.00;33.60
12426;DHT22;6277;49.824;9.562;2022-08-01T15:59:54;34.90;33.60
12426;DHT22;6277;49.824;9.562;2022-08-01T16:02:20;34.70;33.70
12426;DHT22;6277;49.824;9.562;2022-08-01T16:04:46;34.50;33.60
12426;DHT22;6277;49.824;9.562;2022-08-01T16:07:11;34.40;34.40
12426;DHT22;6277;49.824;9.562;2022-08-01T16:09:37;34.30;34.00
12426;DHT22;6277;49.824;9.562;2022-08-01T16:12:03;34.10;34.00
12426;DHT22;6277;49.824;9.562;2022-08-01T16:14:28;34.10;34.20
12426;DHT22;6277;49.824;9.562;2022-08-01T16:16:54;34.00;34.10
12426;DHT22;6277;49.824;9.562;2022-08-01T16:19:19;33.90;34.10
12426;DHT22;6277;49.824;9.562;2022-08-01T16:21:45;33.80;34.20
12426;DHT22;6277;49.824;9.562;2022-08-01T16:24:11;33.70;34.20
12426;DHT22;6277;49.824;9.562;2022-08-01T16:26:39;33.60;34.30